ADDS METAR Data INFO
IDs: Format: Raw Decoded Include TAF

Data at: 1552 UTC 19 Nov 2017

METAR for:KSGH (Springfield Muni, OH, US)
Text:KSGH 191456Z AUTO 29014KT 10SM BKN023 BKN027 OVC055 03/M01 A2994 RMK AO2 SLP147 T00331006 51022 $
Temperature: 3.3°C ( 38°F)
Dewpoint: -0.6°C ( 31°F) [RH = 76%]
Pressure (altimeter):29.94 inches Hg (1014.0 mb) [Sea level pressure: 1014.7 mb]
Winds:from the WNW (290 degrees) at 16 MPH (14 knots; 7.2 m/s)
Visibility:10 or more sm (16+ km)
Ceiling:2300 feet AGL
Clouds: broken clouds at 2300 feet AGL, broken clouds at 2700 feet AGL, overcast cloud deck at 5500 feet AGL
QC Flag:automated observation with no human augmentation; SOME DATA ABOVE MAY BE INACCURATE!!!"$" is an indication the sensor requires maintenance.